createdAt,value
2023-03-23T00:02:29.224Z,99819.59
2023-03-23T00:05:01.568Z,99813.34
2023-03-23T00:07:34.090Z,99806.34
2023-03-23T00:10:05.341Z,99815.16
2023-03-23T00:12:43.414Z,99805.50
2023-03-23T00:15:17.895Z,99800.81
2023-03-23T00:17:48.959Z,99807.19
2023-03-23T00:20:20.286Z,99800.84
2023-03-23T00:22:53.208Z,99807.31
2023-03-23T00:25:23.905Z,99778.44
2023-03-23T00:27:57.804Z,99788.44
2023-03-23T00:30:30.462Z,99786.34
2023-03-23T00:33:03.897Z,99783.63
2023-03-23T00:35:36.026Z,99783.28
2023-03-23T00:38:06.844Z,99783.03
2023-03-23T00:40:38.439Z,99799.84
2023-03-23T00:43:15.184Z,99761.66
2023-03-23T00:45:50.545Z,99782.09
2023-03-23T00:48:22.884Z,99769.88
2023-03-23T00:50:54.307Z,99776.69
2023-03-23T00:53:26.173Z,99763.41
2023-03-23T00:55:57.487Z,99778.03
2023-03-23T00:58:32.254Z,99779.31
2023-03-23T01:01:03.159Z,99777.56
2023-03-23T01:03:35.011Z,99757.56
2023-03-23T01:06:13.769Z,99771.63
2023-03-23T01:08:50.074Z,99768.13
2023-03-23T01:11:20.691Z,99768.13
2023-03-23T01:13:54.156Z,99770.66
2023-03-23T01:16:25.589Z,99766.38
2023-03-23T01:18:57.159Z,99751.09
2023-03-23T01:21:28.851Z,99750.09
2023-03-23T01:23:59.935Z,99704.00
2023-03-23T01:26:32.000Z,99744.84
2023-03-23T01:29:05.203Z,99743.13
2023-03-23T01:31:37.631Z,99735.41
2023-03-23T01:34:11.585Z,99735.31
2023-03-23T01:36:44.244Z,99730.91
2023-03-23T01:39:15.384Z,99728.16
2023-03-23T01:41:46.424Z,99723.34
2023-03-23T01:44:50.977Z,99724.22
2023-03-23T01:47:27.799Z,99716.56
2023-03-23T01:49:59.713Z,99722.38
2023-03-23T01:52:35.191Z,99711.28
2023-03-23T01:55:08.490Z,99701.06
2023-03-23T01:57:40.103Z,99712.16
2023-03-23T02:00:16.483Z,99715.34
2023-03-23T02:02:58.383Z,99710.84
2023-03-23T02:05:35.305Z,99721.94
2023-03-23T02:08:15.081Z,99718.63
2023-03-23T02:10:47.041Z,99698.88
2023-03-23T02:13:23.449Z,99713.56
2023-03-23T02:16:06.185Z,99682.53
2023-03-23T02:18:56.994Z,99707.09
2023-03-23T02:21:56.172Z,99697.00
2023-03-23T02:24:56.640Z,99704.72
2023-03-23T02:27:50.049Z,99698.00
2023-03-23T02:30:42.656Z,99691.53
2023-03-23T02:33:43.723Z,99686.28
2023-03-23T02:36:25.926Z,99690.88
2023-03-23T02:39:05.047Z,99687.59
2023-03-23T02:41:42.014Z,99654.47
2023-03-23T02:44:14.521Z,99665.31
2023-03-23T02:46:47.575Z,99672.88
2023-03-23T02:49:23.542Z,99675.31
2023-03-23T02:51:55.709Z,99680.25
2023-03-23T02:54:28.274Z,99673.47
2023-03-23T02:57:02.565Z,99681.78
2023-03-23T02:59:36.235Z,99665.34
2023-03-23T03:02:11.403Z,99669.94
2023-03-23T03:04:54.357Z,99655.34
2023-03-23T03:07:40.310Z,99660.84
2023-03-23T03:10:17.303Z,99651.59
2023-03-23T03:12:54.832Z,99651.59
2023-03-23T03:15:30.828Z,99646.03
2023-03-23T03:18:08.718Z,99661.94
2023-03-23T03:20:47.791Z,99657.00
2023-03-23T03:23:23.844Z,99668.72
2023-03-23T03:25:58.836Z,99662.69
2023-03-23T03:28:42.747Z,99651.41
2023-03-23T03:31:16.600Z,99642.94
2023-03-23T03:33:48.056Z,99644.63
2023-03-23T03:36:25.983Z,99641.09
2023-03-23T03:38:58.594Z,99635.19
2023-03-23T03:41:29.370Z,99644.38
2023-03-23T03:44:00.168Z,99633.09
2023-03-23T03:46:32.294Z,99639.88
2023-03-23T03:49:04.238Z,99622.78
2023-03-23T03:51:40.900Z,99619.84
2023-03-23T03:54:16.995Z,99652.28
2023-03-23T03:56:49.638Z,99633.63
2023-03-23T03:59:43.491Z,99632.66
2023-03-23T04:02:36.807Z,99634.84
2023-03-23T04:05:08.829Z,99619.81
2023-03-23T04:07:43.179Z,99620.94
2023-03-23T04:10:14.756Z,99617.41
2023-03-23T04:13:05.786Z,99630.13
2023-03-23T04:15:40.619Z,99623.47
2023-03-23T04:18:33.332Z,99627.72
2023-03-23T04:21:08.544Z,99625.19
2023-03-23T04:23:42.040Z,99629.03
2023-03-23T04:26:14.251Z,99632.56
2023-03-23T04:28:48.531Z,99625.63
2023-03-23T04:31:38.628Z,99618.97
2023-03-23T04:34:29.761Z,99608.63
2023-03-23T04:37:01.425Z,99604.25
2023-03-23T04:39:37.642Z,99605.13
2023-03-23T04:42:08.788Z,99610.16
2023-03-23T04:44:57.911Z,99609.41
2023-03-23T04:47:41.212Z,99615.19
2023-03-23T04:50:25.145Z,99600.22
2023-03-23T04:52:58.817Z,99603.91
2023-03-23T04:55:32.349Z,99610.84
2023-03-23T04:58:04.044Z,99599.88
2023-03-23T05:00:38.527Z,99592.31
2023-03-23T05:03:10.931Z,99582.75
2023-03-23T05:05:41.839Z,99592.41
2023-03-23T05:08:12.738Z,99604.47
2023-03-23T05:10:54.393Z,99597.00
2023-03-23T05:13:26.962Z,99607.00
2023-03-23T05:15:59.571Z,99611.16
2023-03-23T05:18:30.710Z,99620.38
2023-03-23T05:21:04.467Z,99619.25
2023-03-23T05:23:41.226Z,99606.69
2023-03-23T05:26:31.325Z,99613.13
2023-03-23T05:29:09.352Z,99628.78
2023-03-23T05:31:49.754Z,99623.75
2023-03-23T05:34:20.383Z,99625.50
2023-03-23T05:36:54.387Z,99625.72
2023-03-23T05:39:54.406Z,99619.94
2023-03-23T05:42:42.110Z,99613.25
2023-03-23T05:45:24.121Z,99622.56
2023-03-23T05:47:56.372Z,99622.91
2023-03-23T05:50:29.991Z,99605.78
2023-03-23T05:53:00.776Z,99621.78
2023-03-23T05:55:31.442Z,99614.78
2023-03-23T05:58:13.533Z,99612.91
2023-03-23T06:00:47.900Z,99621.78
2023-03-23T06:03:27.525Z,99601.28
2023-03-23T06:06:05.220Z,99624.53
2023-03-23T06:08:52.648Z,99617.63
2023-03-23T06:11:31.588Z,99625.41
2023-03-23T06:14:33.511Z,99617.28
2023-03-23T06:17:05.148Z,99609.94
2023-03-23T06:19:36.180Z,99605.56
2023-03-23T06:22:12.226Z,99594.38
2023-03-23T06:25:01.341Z,99611.59
2023-03-23T06:27:39.869Z,99603.13
2023-03-23T06:30:16.328Z,99613.22
2023-03-23T06:32:48.493Z,99602.03
2023-03-23T06:35:23.910Z,99615.44
2023-03-23T06:38:17.464Z,99609.06
2023-03-23T06:40:55.753Z,99617.94
2023-03-23T06:43:28.837Z,99611.66
2023-03-23T06:46:09.222Z,99634.91
2023-03-23T06:49:00.456Z,99631.59
2023-03-23T06:51:42.538Z,99631.38
2023-03-23T06:54:13.415Z,99634.41
2023-03-23T06:56:45.820Z,99638.91
2023-03-23T06:59:16.789Z,99639.66
2023-03-23T07:01:50.472Z,99645.50
2023-03-23T07:04:24.685Z,99644.53
2023-03-23T07:07:06.144Z,99651.09
2023-03-23T07:09:43.518Z,99637.06
2023-03-23T07:12:15.587Z,99647.59
2023-03-23T07:14:51.093Z,99649.38
2023-03-23T07:17:24.715Z,99647.41
2023-03-23T07:20:13.116Z,99653.06
2023-03-23T07:22:44.865Z,99650.00
2023-03-23T07:25:27.882Z,99640.56
2023-03-23T07:28:00.324Z,99643.84
2023-03-23T07:30:32.758Z,99628.69
2023-03-23T07:33:08.292Z,99637.09
2023-03-23T07:35:40.756Z,99643.03
2023-03-23T07:38:15.065Z,99651.50
2023-03-23T07:40:49.935Z,99648.88
2023-03-23T07:43:23.655Z,99652.25
2023-03-23T07:45:57.658Z,99653.66
2023-03-23T07:48:35.563Z,99654.28
2023-03-23T07:51:06.567Z,99599.44
2023-03-23T07:53:37.290Z,99643.03
2023-03-23T07:56:30.570Z,99621.75
2023-03-23T07:59:12.458Z,99628.50
2023-03-23T08:01:45.123Z,99641.16
2023-03-23T08:04:38.452Z,99636.94
2023-03-23T08:07:27.704Z,99647.16
2023-03-23T08:10:11.201Z,99643.78
2023-03-23T08:13:08.004Z,99651.38
2023-03-23T08:16:05.447Z,99630.56
2023-03-23T08:18:59.071Z,99648.19
2023-03-23T08:22:10.835Z,99648.84
2023-03-23T08:25:07.264Z,99642.63
2023-03-23T08:27:56.711Z,99649.59
2023-03-23T08:30:53.670Z,99656.78
2023-03-23T08:33:52.462Z,99660.06
2023-03-23T08:36:41.464Z,99664.88
2023-03-23T08:39:20.653Z,99669.13
2023-03-23T08:42:12.014Z,99668.88
2023-03-23T08:44:49.349Z,99670.59
2023-03-23T08:47:56.187Z,99667.78
2023-03-23T08:50:58.531Z,99684.03
2023-03-23T08:53:33.226Z,99660.88
2023-03-23T08:56:26.409Z,99689.28
2023-03-23T08:59:17.356Z,99689.94
2023-03-23T09:02:08.226Z,99685.88
2023-03-23T09:04:47.982Z,99664.75
2023-03-23T09:07:37.042Z,99685.50
2023-03-23T09:10:08.970Z,99680.94
2023-03-23T09:12:42.521Z,99683.66
2023-03-23T09:15:18.599Z,99685.69
2023-03-23T09:17:54.866Z,99680.53
2023-03-23T09:20:28.151Z,99695.25
2023-03-23T09:23:00.339Z,99684.97
2023-03-23T09:25:31.978Z,99684.88
2023-03-23T09:28:05.525Z,99682.25
2023-03-23T09:30:44.766Z,99693.38
2023-03-23T09:33:23.478Z,99695.50
2023-03-23T09:35:54.692Z,99695.72
2023-03-23T09:38:26.276Z,99698.16
2023-03-23T09:41:02.980Z,99663.09
2023-03-23T09:43:47.337Z,99711.97
2023-03-23T09:46:31.965Z,99701.84
2023-03-23T09:49:05.147Z,99710.44
2023-03-23T09:51:45.088Z,99701.94
2023-03-23T09:54:22.836Z,99713.16
2023-03-23T09:56:55.598Z,99723.50
2023-03-23T09:59:34.994Z,99712.88
2023-03-23T10:02:18.521Z,99707.19
2023-03-23T10:04:51.419Z,99719.66
2023-03-23T10:07:23.901Z,99722.75
2023-03-23T10:09:58.307Z,99724.19
2023-03-23T10:12:38.603Z,99720.69
2023-03-23T10:15:21.273Z,99723.03
2023-03-23T10:17:57.646Z,99740.47
2023-03-23T10:20:41.152Z,99731.16
2023-03-23T10:23:18.721Z,99733.22
2023-03-23T10:25:55.651Z,99742.44
2023-03-23T10:28:40.320Z,99735.72
2023-03-23T10:31:17.126Z,99734.72
2023-03-23T10:33:53.349Z,99738.31
2023-03-23T10:36:28.738Z,99740.41
2023-03-23T10:39:05.477Z,99736.56
2023-03-23T10:41:36.151Z,99725.41
2023-03-23T10:44:14.873Z,99739.94
2023-03-23T10:46:54.673Z,99740.00
2023-03-23T10:49:29.862Z,99757.06
2023-03-23T10:52:08.450Z,99747.28
2023-03-23T10:54:42.188Z,99748.03
2023-03-23T10:57:26.396Z,99744.91
2023-03-23T11:00:07.258Z,99726.88
2023-03-23T11:02:44.998Z,99741.94
2023-03-23T11:05:24.859Z,99748.06
2023-03-23T11:07:58.338Z,99729.91
2023-03-23T11:10:31.576Z,99732.91
2023-03-23T11:13:02.664Z,99724.41
2023-03-23T11:15:37.448Z,99737.66
2023-03-23T11:18:14.547Z,99722.94
2023-03-23T11:20:49.568Z,99725.03
2023-03-23T11:23:24.907Z,99732.91
2023-03-23T11:25:59.700Z,99723.56
2023-03-23T11:28:35.408Z,99745.47
2023-03-23T11:31:08.854Z,99748.25
2023-03-23T11:34:05.576Z,99743.88
2023-03-23T11:36:39.789Z,99732.13
2023-03-23T11:39:24.886Z,99741.94
2023-03-23T11:42:08.821Z,99715.41
2023-03-23T11:44:47.377Z,99747.69
2023-03-23T11:47:37.506Z,99738.66
2023-03-23T11:50:18.747Z,99737.22
2023-03-23T11:52:53.748Z,99735.44
2023-03-23T11:55:32.814Z,99734.75
2023-03-23T11:58:09.229Z,99726.34
2023-03-23T12:00:40.892Z,99744.00
2023-03-23T12:03:30.177Z,99748.72
2023-03-23T12:06:09.283Z,99737.91
2023-03-23T12:08:54.603Z,99762.44
2023-03-23T12:11:31.713Z,99826.41
2023-03-23T12:14:16.729Z,99812.09
2023-03-23T12:17:09.442Z,99809.06
2023-03-23T12:19:47.652Z,99803.25
2023-03-23T12:22:37.500Z,99803.91
2023-03-23T12:25:24.596Z,99809.53
2023-03-23T12:28:03.792Z,99804.56
2023-03-23T12:30:39.508Z,99817.31
2023-03-23T12:33:22.446Z,99818.84
2023-03-23T12:36:03.659Z,99833.22
2023-03-23T12:38:52.089Z,99838.41
2023-03-23T12:41:27.437Z,99832.03
2023-03-23T12:44:05.125Z,99846.84
2023-03-23T12:46:59.609Z,99833.19
2023-03-23T12:49:38.508Z,99831.09
2023-03-23T12:52:17.670Z,99830.78
2023-03-23T12:54:58.300Z,99844.31
2023-03-23T12:57:35.342Z,99834.53
2023-03-23T13:00:16.710Z,99836.41
2023-03-23T13:02:54.464Z,99831.53
2023-03-23T13:05:38.387Z,99827.56
2023-03-23T13:08:15.628Z,99827.56
2023-03-23T13:10:51.460Z,99834.97
2023-03-23T13:16:17.817Z,99825.44
2023-03-23T13:18:54.158Z,99804.25
2023-03-23T13:21:30.232Z,99835.44
2023-03-23T13:24:03.909Z,99812.41
2023-03-23T13:26:42.488Z,99837.69
2023-03-23T13:29:20.195Z,99846.16
2023-03-23T13:31:51.726Z,99843.63
2023-03-23T13:34:24.355Z,99842.22
2023-03-23T13:37:00.244Z,99840.13
2023-03-23T13:39:34.537Z,99834.44
2023-03-23T13:42:23.973Z,99842.75
2023-03-23T13:45:22.593Z,99860.81
2023-03-23T13:47:53.247Z,99848.94
2023-03-23T13:50:33.518Z,99862.81
2023-03-23T13:53:17.700Z,99861.25
2023-03-23T13:55:59.677Z,99856.28
2023-03-23T13:58:36.244Z,99839.03
2023-03-23T14:01:20.086Z,99836.22
2023-03-23T14:03:54.049Z,99828.06
2023-03-23T14:06:27.492Z,99837.72
2023-03-23T14:09:20.031Z,99837.22
2023-03-23T14:11:55.011Z,99840.97
2023-03-23T14:14:32.989Z,99837.22
2023-03-23T14:17:11.386Z,99832.59
2023-03-23T14:19:46.164Z,99827.19
2023-03-23T14:22:23.356Z,99820.06
2023-03-23T14:24:55.175Z,99835.31
2023-03-23T14:27:28.144Z,99802.47
2023-03-23T14:30:07.353Z,99822.47
2023-03-23T14:32:38.367Z,99829.97
2023-03-23T14:35:13.014Z,99829.19
2023-03-23T14:37:43.787Z,99835.44
2023-03-23T14:40:19.042Z,99842.25
2023-03-23T14:42:50.872Z,99842.72
2023-03-23T14:45:26.156Z,99821.97
2023-03-23T14:47:59.053Z,99841.06
2023-03-23T14:50:32.552Z,99850.81
2023-03-23T14:53:14.380Z,99847.97
2023-03-23T14:55:52.417Z,99854.91
2023-03-23T14:58:25.818Z,99820.44
2023-03-23T15:01:02.643Z,99851.47
2023-03-23T15:03:39.264Z,99850.28
2023-03-23T15:06:15.855Z,99854.63
2023-03-23T15:08:48.737Z,99854.91
2023-03-23T15:11:28.900Z,99847.56
2023-03-23T15:14:04.771Z,99851.84
2023-03-23T15:16:42.722Z,99842.09
2023-03-23T15:19:20.081Z,99857.91
2023-03-23T15:21:53.335Z,99841.22
2023-03-23T15:24:30.622Z,99845.53
2023-03-23T15:27:19.002Z,99841.31
2023-03-23T15:29:54.254Z,99834.63
2023-03-23T15:32:34.738Z,99845.28
2023-03-23T15:35:15.066Z,99850.16
2023-03-23T15:37:49.451Z,99838.81
2023-03-23T15:40:22.446Z,99849.81
2023-03-23T15:42:54.473Z,99846.09
2023-03-23T15:45:30.130Z,99856.09
2023-03-23T15:48:14.331Z,99870.28
2023-03-23T15:50:46.808Z,99862.69
2023-03-23T15:53:28.626Z,99877.06
2023-03-23T15:55:59.843Z,99852.63
2023-03-23T15:58:31.443Z,99854.69
2023-03-23T16:01:05.904Z,99848.88
2023-03-23T16:03:42.623Z,99834.28
2023-03-23T16:06:23.533Z,99817.84
2023-03-23T16:08:56.687Z,99824.56
2023-03-23T16:11:29.615Z,99836.19
2023-03-23T16:14:02.110Z,99827.88
2023-03-23T16:16:36.635Z,99825.00
2023-03-23T16:19:11.696Z,99837.16
2023-03-23T16:21:42.456Z,99835.78
2023-03-23T16:24:13.629Z,99820.47
2023-03-23T16:26:44.559Z,99825.31
2023-03-23T16:29:33.898Z,99829.50
2023-03-23T16:32:07.917Z,99829.31
2023-03-23T16:34:41.478Z,99828.31
2023-03-23T16:37:14.605Z,99829.59
2023-03-23T16:39:47.553Z,99830.72
2023-03-23T16:42:18.243Z,99827.75
2023-03-23T16:44:51.109Z,99832.44
2023-03-23T16:47:23.616Z,99833.09
2023-03-23T16:49:57.305Z,99831.16
2023-03-23T16:52:28.006Z,99819.94
2023-03-23T16:55:00.779Z,99829.16
2023-03-23T16:57:31.377Z,99824.66
2023-03-23T17:00:02.040Z,99817.72
2023-03-23T17:02:32.975Z,99828.06
2023-03-23T17:05:07.413Z,99834.41
2023-03-23T17:07:38.102Z,99835.72
2023-03-23T17:10:12.970Z,99845.59
2023-03-23T17:12:44.421Z,99855.44
2023-03-23T17:15:15.533Z,99844.25
2023-03-23T17:17:46.307Z,99839.09
2023-03-23T17:20:19.833Z,99851.94
2023-03-23T17:22:50.926Z,99850.78
2023-03-23T17:25:21.899Z,99859.97
2023-03-23T17:27:52.529Z,99865.34
2023-03-23T17:30:24.080Z,99855.22
2023-03-23T17:32:55.106Z,99862.25
2023-03-23T17:35:28.589Z,99863.59
2023-03-23T17:37:59.316Z,99870.97
2023-03-23T17:40:29.863Z,99874.34
2023-03-23T17:43:00.415Z,99860.72
2023-03-23T17:45:31.148Z,99864.59
2023-03-23T17:48:01.995Z,99860.53
2023-03-23T17:50:35.479Z,99867.91
2023-03-23T17:53:08.966Z,99860.34
2023-03-23T17:55:41.905Z,99867.91
2023-03-23T17:58:16.885Z,99854.16
2023-03-23T18:00:48.129Z,99868.00
2023-03-23T18:03:19.099Z,99870.69
2023-03-23T18:05:53.329Z,99869.03
2023-03-23T18:08:26.326Z,99876.28
2023-03-23T18:10:58.390Z,99885.47
2023-03-23T18:13:32.279Z,99896.31
2023-03-23T18:16:03.894Z,99888.94
2023-03-23T18:18:35.185Z,99903.19
2023-03-23T18:21:10.901Z,99912.69
2023-03-23T18:23:56.685Z,99911.47
2023-03-23T18:26:30.632Z,99908.47
2023-03-23T18:29:01.346Z,99900.44
2023-03-23T18:31:33.108Z,99907.00
2023-03-23T18:34:05.133Z,99908.78
2023-03-23T18:36:38.726Z,99919.31
2023-03-23T18:39:10.958Z,99908.47
2023-03-23T18:41:41.652Z,99901.91
2023-03-23T18:44:12.278Z,99904.13
2023-03-23T18:46:43.305Z,99901.38
2023-03-23T18:49:13.901Z,99906.44
2023-03-23T18:51:47.062Z,99896.34
2023-03-23T18:54:17.747Z,99892.81
2023-03-23T18:56:48.507Z,99897.09
2023-03-23T18:59:19.267Z,99900.88
2023-03-23T19:01:50.268Z,99897.94
2023-03-23T19:04:22.703Z,99891.22
2023-03-23T19:06:55.847Z,99892.16
2023-03-23T19:09:27.557Z,99889.09
2023-03-23T19:11:59.442Z,99893.63
2023-03-23T19:14:30.343Z,99875.47
2023-03-23T19:17:01.151Z,99879.22
2023-03-23T19:19:32.430Z,99879.13
2023-03-23T19:22:06.792Z,99876.47
2023-03-23T19:24:39.031Z,99864.09
2023-03-23T19:27:09.815Z,99872.00
2023-03-23T19:29:40.576Z,99871.69
2023-03-23T19:32:12.217Z,99867.53
2023-03-23T19:34:43.005Z,99860.06
2023-03-23T19:37:17.497Z,99853.38
2023-03-23T19:39:48.506Z,99849.88
2023-03-23T19:42:20.574Z,99851.94
2023-03-23T19:44:53.368Z,99840.53
2023-03-23T19:47:24.550Z,99839.69
2023-03-23T19:49:56.796Z,99835.63
2023-03-23T19:52:31.167Z,99834.09
2023-03-23T19:55:01.847Z,99840.25
2023-03-23T19:57:32.659Z,99837.47
2023-03-23T20:00:07.596Z,99833.22
2023-03-23T20:02:38.253Z,99828.69
2023-03-23T20:05:09.295Z,99831.13
2023-03-23T20:07:45.419Z,99798.28
2023-03-23T20:10:20.743Z,99812.19
2023-03-23T20:12:51.374Z,99797.31
2023-03-23T20:15:22.035Z,99816.66
2023-03-23T20:17:53.158Z,99794.97
2023-03-23T20:20:25.058Z,99812.72
2023-03-23T20:22:59.111Z,99812.25
2023-03-23T20:25:31.404Z,99808.31
2023-03-23T20:28:02.120Z,99811.69
2023-03-23T20:30:33.231Z,99817.19
2023-03-23T20:33:03.829Z,99819.50
2023-03-23T20:35:34.519Z,99823.88
2023-03-23T20:38:07.951Z,99823.47
2023-03-23T20:40:38.844Z,99828.53
2023-03-23T20:43:10.761Z,99806.63
2023-03-23T20:45:42.765Z,99825.50
2023-03-23T20:48:16.010Z,99823.63
2023-03-23T20:50:47.330Z,99814.72
2023-03-23T20:53:20.627Z,99801.13
2023-03-23T20:55:51.687Z,99781.84
2023-03-23T20:58:22.738Z,99792.50
2023-03-23T21:00:57.340Z,99799.75
2023-03-23T21:03:28.612Z,99785.88
2023-03-23T21:05:59.453Z,99797.97
2023-03-23T21:08:34.420Z,99768.16
2023-03-23T21:11:07.159Z,99784.66
2023-03-23T21:13:38.659Z,99782.75
2023-03-23T21:16:09.685Z,99786.53
2023-03-23T21:18:41.140Z,99792.56
2023-03-23T21:21:12.453Z,99783.00
2023-03-23T21:23:46.837Z,99764.91
2023-03-23T21:26:20.243Z,99772.16
2023-03-23T21:28:54.343Z,99759.34
2023-03-23T21:31:30.698Z,99770.28
2023-03-23T21:34:02.081Z,99754.28
2023-03-23T21:36:33.198Z,99762.19
2023-03-23T21:39:07.010Z,99762.47
2023-03-23T21:41:42.843Z,99748.72
2023-03-23T21:44:15.496Z,99743.19
2023-03-23T21:46:47.071Z,99749.97
2023-03-23T21:49:17.778Z,99742.41
2023-03-23T21:51:49.194Z,99737.47
2023-03-23T21:54:22.517Z,99728.19
2023-03-23T21:56:53.401Z,99729.56
2023-03-23T21:59:23.934Z,99735.75
2023-03-23T22:01:55.091Z,99719.13
2023-03-23T22:04:26.101Z,99723.16
2023-03-23T22:06:57.244Z,99731.94
2023-03-23T22:09:31.110Z,99723.59
2023-03-23T22:12:01.880Z,99721.44
2023-03-23T22:14:32.971Z,99712.88
2023-03-23T22:17:03.849Z,99708.50
2023-03-23T22:19:34.699Z,99707.47
2023-03-23T22:22:06.438Z,99692.22
2023-03-23T22:24:39.977Z,99695.09
2023-03-23T22:27:11.671Z,99699.81
2023-03-23T22:29:42.796Z,99684.59
2023-03-23T22:32:13.629Z,99691.59
2023-03-23T22:34:47.827Z,99691.72
2023-03-23T22:37:19.237Z,99676.38
2023-03-23T22:39:53.191Z,99671.53
2023-03-23T22:42:23.980Z,99676.25
2023-03-23T22:44:55.071Z,99668.50
2023-03-23T22:47:25.941Z,99645.25
2023-03-23T22:49:56.779Z,99661.47
2023-03-23T22:52:27.781Z,99658.84
2023-03-23T22:55:01.590Z,99660.84
2023-03-23T22:57:35.696Z,99649.75
2023-03-23T23:00:15.133Z,99659.06
2023-03-23T23:02:46.538Z,99649.88
2023-03-23T23:05:17.622Z,99641.41
2023-03-23T23:07:48.665Z,99633.75
2023-03-23T23:10:22.304Z,99636.38
2023-03-23T23:12:54.505Z,99624.19
2023-03-23T23:15:25.454Z,99626.19
2023-03-23T23:17:56.311Z,99626.97
2023-03-23T23:20:27.077Z,99622.66
2023-03-23T23:22:59.861Z,99611.38
2023-03-23T23:25:34.525Z,99611.38
2023-03-23T23:28:05.656Z,99611.94
2023-03-23T23:30:38.060Z,99601.75
2023-03-23T23:33:09.595Z,99595.03
2023-03-23T23:35:41.887Z,99596.00
2023-03-23T23:38:13.513Z,99593.50
2023-03-23T23:40:48.779Z,99593.50
2023-03-23T23:43:20.218Z,99593.50
2023-03-23T23:45:51.503Z,99575.31
2023-03-23T23:48:23.284Z,99571.78
2023-03-23T23:50:54.451Z,99581.47
2023-03-23T23:53:25.956Z,99581.47
2023-03-23T23:55:59.742Z,99581.56
2023-03-23T23:58:30.611Z,99580.03
